sensor_id;sensor_type;location;lat;lon;timestamp;temperature;humidity
68215;DHT22;55036;52.138;5.236;2023-02-17T00:00:55;11.00;99.90
68215;DHT22;55036;52.138;5.236;2023-02-17T00:03:22;11.00;99.90
68215;DHT22;55036;52.138;5.236;2023-02-17T00:05:49;10.90;99.90
68215;DHT22;55036;52.138;5.236;2023-02-17T00:08:16;10.90;99.90
68215;DHT22;55036;52.138;5.236;2023-02-17T00:10:44;10.90;99.90
68215;DHT22;55036;52.138;5.236;2023-02-17T00:13:10;10.90;99.90
68215;DHT22;55036;52.138;5.236;2023-02-17T00:15:37;10.90;99.90
68215;DHT22;55036;52.138;5.236;2023-02-17T00:18:04;11.00;99.90
68215;DHT22;55036;52.138;5.236;2023-02-17T00:20:31;11.00;99.90
68215;DHT22;55036;52.138;5.236;2023-02-17T00:22:58;11.00;99.90
68215;DHT22;55036;52.138;5.236;2023-02-17T00:25:24;11.00;99.90
68215;DHT22;55036;52.138;5.236;2023-02-17T00:27:51;11.00;99.90
68215;DHT22;55036;52.138;5.236;2023-02-17T00:30:18;11.00;99.90
68215;DHT22;55036;52.138;5.236;2023-02-17T00:32:45;10.90;99.90
68215;DHT22;55036;52.138;5.236;2023-02-17T00:35:11;10.90;99.90
68215;DHT22;55036;52.138;5.236;2023-02-17T00:37:38;10.90;99.90
68215;DHT22;55036;52.138;5.236;2023-02-17T00:40:06;10.90;99.90
68215;DHT22;55036;52.138;5.236;2023-02-17T00:42:33;11.00;99.90
68215;DHT22;55036;52.138;5.236;2023-02-17T00:44:59;10.90;99.90
68215;DHT22;55036;52.138;5.236;2023-02-17T00:47:26;10.90;99.90
68215;DHT22;55036;52.138;5.236;2023-02-17T00:49:52;10.90;99.90
68215;DHT22;55036;52.138;5.236;2023-02-17T00:52:19;10.90;99.90
68215;DHT22;55036;52.138;5.236;2023-02-17T00:54:46;11.00;99.90
68215;DHT22;55036;52.138;5.236;2023-02-17T00:57:12;11.00;99.80
68215;DHT22;55036;52.138;5.236;2023-02-17T00:59:39;10.90;99.90
68215;DHT22;55036;52.138;5.236;2023-02-17T01:02:06;10.90;99.90
68215;DHT22;55036;52.138;5.236;2023-02-17T01:04:32;10.90;99.90
68215;DHT22;55036;52.138;5.236;2023-02-17T01:06:59;10.90;99.90
68215;DHT22;55036;52.138;5.236;2023-02-17T01:09:26;10.90;99.70
68215;DHT22;55036;52.138;5.236;2023-02-17T01:11:52;10.90;99.90
68215;DHT22;55036;52.138;5.236;2023-02-17T01:14:19;10.90;99.80
68215;DHT22;55036;52.138;5.236;2023-02-17T01:16:47;10.80;99.80
68215;DHT22;55036;52.138;5.236;2023-02-17T01:19:17;10.80;99.40
68215;DHT22;55036;52.138;5.236;2023-02-17T01:21:44;10.90;99.80
68215;DHT22;55036;52.138;5.236;2023-02-17T01:24:11;10.90;99.60
68215;DHT22;55036;52.138;5.236;2023-02-17T01:26:39;10.90;99.50
68215;DHT22;55036;52.138;5.236;2023-02-17T01:29:07;10.80;99.80
68215;DHT22;55036;52.138;5.236;2023-02-17T01:31:34;10.80;99.30
68215;DHT22;55036;52.138;5.236;2023-02-17T01:34:03;10.80;99.50
68215;DHT22;55036;52.138;5.236;2023-02-17T01:36:30;10.80;99.40
68215;DHT22;55036;52.138;5.236;2023-02-17T01:38:58;10.70;99.40
68215;DHT22;55036;52.138;5.236;2023-02-17T01:41:26;10.70;99.60
68215;DHT22;55036;52.138;5.236;2023-02-17T01:44:19;10.60;99.90
68215;DHT22;55036;52.138;5.236;2023-02-17T01:46:49;10.60;99.70
68215;DHT22;55036;52.138;5.236;2023-02-17T01:51:56;10.50;99.90
68215;DHT22;55036;52.138;5.236;2023-02-17T01:54:29;10.60;99.80
68215;DHT22;55036;52.138;5.236;2023-02-17T01:56:58;10.60;99.70
68215;DHT22;55036;52.138;5.236;2023-02-17T01:59:27;10.50;99.90
68215;DHT22;55036;52.138;5.236;2023-02-17T02:01:57;10.50;99.90
68215;DHT22;55036;52.138;5.236;2023-02-17T02:04:30;10.50;99.90
68215;DHT22;55036;52.138;5.236;2023-02-17T02:06:58;10.40;99.90
68215;DHT22;55036;52.138;5.236;2023-02-17T02:09:30;10.40;99.90
68215;DHT22;55036;52.138;5.236;2023-02-17T02:11:58;10.30;99.90
68215;DHT22;55036;52.138;5.236;2023-02-17T02:14:25;10.30;99.90
68215;DHT22;55036;52.138;5.236;2023-02-17T02:19:55;10.30;99.90
68215;DHT22;55036;52.138;5.236;2023-02-17T02:22:50;10.30;99.90
68215;DHT22;55036;52.138;5.236;2023-02-17T02:28:33;10.30;99.90
68215;DHT22;55036;52.138;5.236;2023-02-17T02:34:05;10.30;99.90
68215;DHT22;55036;52.138;5.236;2023-02-17T02:36:43;10.20;99.80
68215;DHT22;55036;52.138;5.236;2023-02-17T02:39:19;10.20;99.90
68215;DHT22;55036;52.138;5.236;2023-02-17T02:41:50;10.20;99.90
68215;DHT22;55036;52.138;5.236;2023-02-17T02:44:19;10.30;99.90
68215;DHT22;55036;52.138;5.236;2023-02-17T02:46:57;10.30;99.60
68215;DHT22;55036;52.138;5.236;2023-02-17T02:49:25;10.20;99.40
68215;DHT22;55036;52.138;5.236;2023-02-17T02:55:06;10.20;99.80
68215;DHT22;55036;52.138;5.236;2023-02-17T03:00:14;10.10;99.60
68215;DHT22;55036;52.138;5.236;2023-02-17T03:02:55;10.00;99.50
68215;DHT22;55036;52.138;5.236;2023-02-17T03:08:59;10.20;99.70
68215;DHT22;55036;52.138;5.236;2023-02-17T03:10:54;10.20;99.30
68215;DHT22;55036;52.138;5.236;2023-02-17T03:13:21;10.20;99.60
68215;DHT22;55036;52.138;5.236;2023-02-17T03:15:48;10.30;99.30
68215;DHT22;55036;52.138;5.236;2023-02-17T03:18:15;10.30;98.90
68215;DHT22;55036;52.138;5.236;2023-02-17T03:20:55;10.20;99.30
68215;DHT22;55036;52.138;5.236;2023-02-17T03:23:22;10.20;99.50
68215;DHT22;55036;52.138;5.236;2023-02-17T03:25:48;10.20;99.80
68215;DHT22;55036;52.138;5.236;2023-02-17T03:28:15;10.20;99.30
68215;DHT22;55036;52.138;5.236;2023-02-17T03:30:42;10.20;99.60
68215;DHT22;55036;52.138;5.236;2023-02-17T03:33:09;10.20;99.70
68215;DHT22;55036;52.138;5.236;2023-02-17T03:35:35;10.20;99.80
68215;DHT22;55036;52.138;5.236;2023-02-17T03:38:02;10.30;99.60
68215;DHT22;55036;52.138;5.236;2023-02-17T03:40:29;10.20;99.50
68215;DHT22;55036;52.138;5.236;2023-02-17T03:42:56;10.20;99.90
68215;DHT22;55036;52.138;5.236;2023-02-17T03:45:23;10.20;99.90
68215;DHT22;55036;52.138;5.236;2023-02-17T03:47:50;10.20;99.90
68215;DHT22;55036;52.138;5.236;2023-02-17T03:50:16;10.30;99.90
68215;DHT22;55036;52.138;5.236;2023-02-17T03:52:44;10.30;99.90
68215;DHT22;55036;52.138;5.236;2023-02-17T03:55:10;10.30;99.90
68215;DHT22;55036;52.138;5.236;2023-02-17T03:57:37;10.40;99.40
68215;DHT22;55036;52.138;5.236;2023-02-17T04:00:05;10.30;99.70
68215;DHT22;55036;52.138;5.236;2023-02-17T04:02:32;10.30;99.90
68215;DHT22;55036;52.138;5.236;2023-02-17T04:04:58;10.40;99.50
68215;DHT22;55036;52.138;5.236;2023-02-17T04:07:25;10.40;99.70
68215;DHT22;55036;52.138;5.236;2023-02-17T04:09:52;10.40;99.80
68215;DHT22;55036;52.138;5.236;2023-02-17T04:12:18;10.40;99.80
68215;DHT22;55036;52.138;5.236;2023-02-17T04:14:45;10.40;99.90
68215;DHT22;55036;52.138;5.236;2023-02-17T04:17:12;10.50;99.60
68215;DHT22;55036;52.138;5.236;2023-02-17T04:19:38;10.50;99.40
68215;DHT22;55036;52.138;5.236;2023-02-17T04:22:05;10.50;99.50
68215;DHT22;55036;52.138;5.236;2023-02-17T04:24:35;10.50;99.30
68215;DHT22;55036;52.138;5.236;2023-02-17T04:27:03;10.50;99.70
68215;DHT22;55036;52.138;5.236;2023-02-17T04:29:31;10.50;99.70
68215;DHT22;55036;52.138;5.236;2023-02-17T04:31:58;10.50;99.80
68215;DHT22;55036;52.138;5.236;2023-02-17T04:34:25;10.60;99.40
68215;DHT22;55036;52.138;5.236;2023-02-17T04:36:51;10.60;99.40
68215;DHT22;55036;52.138;5.236;2023-02-17T04:39:18;10.60;99.30
68215;DHT22;55036;52.138;5.236;2023-02-17T04:41:45;10.60;99.40
68215;DHT22;55036;52.138;5.236;2023-02-17T04:44:12;10.50;99.70
68215;DHT22;55036;52.138;5.236;2023-02-17T04:46:38;10.60;99.30
68215;DHT22;55036;52.138;5.236;2023-02-17T04:49:05;10.60;99.50
68215;DHT22;55036;52.138;5.236;2023-02-17T04:51:31;10.60;99.60
68215;DHT22;55036;52.138;5.236;2023-02-17T04:53:58;10.60;99.70
68215;DHT22;55036;52.138;5.236;2023-02-17T04:56:25;10.60;99.30
68215;DHT22;55036;52.138;5.236;2023-02-17T04:58:51;10.60;99.30
68215;DHT22;55036;52.138;5.236;2023-02-17T05:01:18;10.60;99.30
68215;DHT22;55036;52.138;5.236;2023-02-17T05:03:45;10.60;99.60
68215;DHT22;55036;52.138;5.236;2023-02-17T05:06:11;10.70;99.50
68215;DHT22;55036;52.138;5.236;2023-02-17T05:08:38;10.70;99.30
68215;DHT22;55036;52.138;5.236;2023-02-17T05:11:05;10.70;99.20
68215;DHT22;55036;52.138;5.236;2023-02-17T05:13:31;10.70;99.70
68215;DHT22;55036;52.138;5.236;2023-02-17T05:15:58;10.70;99.40
68215;DHT22;55036;52.138;5.236;2023-02-17T05:18:25;10.80;99.50
68215;DHT22;55036;52.138;5.236;2023-02-17T05:20:52;10.80;99.40
68215;DHT22;55036;52.138;5.236;2023-02-17T05:23:18;10.80;99.30
68215;DHT22;55036;52.138;5.236;2023-02-17T05:25:45;10.80;99.50
68215;DHT22;55036;52.138;5.236;2023-02-17T05:28:12;10.80;99.60
68215;DHT22;55036;52.138;5.236;2023-02-17T05:30:38;10.70;99.90
68215;DHT22;55036;52.138;5.236;2023-02-17T05:33:05;10.80;99.90
68215;DHT22;55036;52.138;5.236;2023-02-17T05:35:33;10.70;99.90
68215;DHT22;55036;52.138;5.236;2023-02-17T05:38:00;10.80;99.90
68215;DHT22;55036;52.138;5.236;2023-02-17T05:40:27;10.80;99.90
68215;DHT22;55036;52.138;5.236;2023-02-17T05:42:54;10.70;99.90
68215;DHT22;55036;52.138;5.236;2023-02-17T05:45:20;10.80;99.90
68215;DHT22;55036;52.138;5.236;2023-02-17T05:47:47;10.80;99.90
68215;DHT22;55036;52.138;5.236;2023-02-17T05:50:14;10.80;99.90
68215;DHT22;55036;52.138;5.236;2023-02-17T05:52:40;10.80;99.90
68215;DHT22;55036;52.138;5.236;2023-02-17T05:55:07;10.80;99.90
68215;DHT22;55036;52.138;5.236;2023-02-17T05:57:34;10.80;99.90
68215;DHT22;55036;52.138;5.236;2023-02-17T06:00:00;10.80;99.90
68215;DHT22;55036;52.138;5.236;2023-02-17T06:02:27;10.80;99.90
68215;DHT22;55036;52.138;5.236;2023-02-17T06:04:54;10.80;99.90
68215;DHT22;55036;52.138;5.236;2023-02-17T06:07:20;10.70;99.90
68215;DHT22;55036;52.138;5.236;2023-02-17T06:09:47;10.80;99.90
68215;DHT22;55036;52.138;5.236;2023-02-17T06:12:14;10.80;99.90
68215;DHT22;55036;52.138;5.236;2023-02-17T06:14:40;10.70;99.90
68215;DHT22;55036;52.138;5.236;2023-02-17T06:17:08;10.90;99.90
68215;DHT22;55036;52.138;5.236;2023-02-17T06:19:35;10.80;99.90
68215;DHT22;55036;52.138;5.236;2023-02-17T06:22:01;10.80;99.90
68215;DHT22;55036;52.138;5.236;2023-02-17T06:24:28;10.80;99.90
68215;DHT22;55036;52.138;5.236;2023-02-17T06:26:55;10.80;99.90
68215;DHT22;55036;52.138;5.236;2023-02-17T06:29:22;10.80;99.90
68215;DHT22;55036;52.138;5.236;2023-02-17T06:31:48;10.80;99.90
68215;DHT22;55036;52.138;5.236;2023-02-17T06:34:15;10.90;99.90
68215;DHT22;55036;52.138;5.236;2023-02-17T06:36:42;10.90;99.90
68215;DHT22;55036;52.138;5.236;2023-02-17T06:39:08;10.90;99.90
68215;DHT22;55036;52.138;5.236;2023-02-17T06:41:35;10.90;99.90
68215;DHT22;55036;52.138;5.236;2023-02-17T06:44:02;10.90;99.90
68215;DHT22;55036;52.138;5.236;2023-02-17T06:46:30;10.90;99.90
68215;DHT22;55036;52.138;5.236;2023-02-17T06:48:56;10.90;99.90
68215;DHT22;55036;52.138;5.236;2023-02-17T06:51:23;10.90;99.90
68215;DHT22;55036;52.138;5.236;2023-02-17T06:53:50;11.00;99.90
68215;DHT22;55036;52.138;5.236;2023-02-17T06:56:16;10.90;99.90
68215;DHT22;55036;52.138;5.236;2023-02-17T06:58:46;11.00;99.90
68215;DHT22;55036;52.138;5.236;2023-02-17T07:01:18;11.00;99.90
68215;DHT22;55036;52.138;5.236;2023-02-17T07:03:45;11.00;99.90
68215;DHT22;55036;52.138;5.236;2023-02-17T07:06:12;10.90;99.90
68215;DHT22;55036;52.138;5.236;2023-02-17T07:08:39;10.90;99.90
68215;DHT22;55036;52.138;5.236;2023-02-17T07:11:08;11.10;99.90
68215;DHT22;55036;52.138;5.236;2023-02-17T07:13:35;11.10;99.90
68215;DHT22;55036;52.138;5.236;2023-02-17T07:16:01;11.00;99.90
68215;DHT22;55036;52.138;5.236;2023-02-17T07:18:28;11.00;99.90
68215;DHT22;55036;52.138;5.236;2023-02-17T07:20:55;11.00;99.90
68215;DHT22;55036;52.138;5.236;2023-02-17T07:23:22;11.00;99.90
68215;DHT22;55036;52.138;5.236;2023-02-17T07:25:49;11.10;99.90
68215;DHT22;55036;52.138;5.236;2023-02-17T07:28:16;11.10;99.90
68215;DHT22;55036;52.138;5.236;2023-02-17T07:30:43;11.10;99.90
68215;DHT22;55036;52.138;5.236;2023-02-17T07:33:10;11.20;99.90
68215;DHT22;55036;52.138;5.236;2023-02-17T07:35:41;11.20;99.90
68215;DHT22;55036;52.138;5.236;2023-02-17T07:38:09;11.20;99.90
68215;DHT22;55036;52.138;5.236;2023-02-17T07:40:38;11.20;99.90
68215;DHT22;55036;52.138;5.236;2023-02-17T07:43:04;11.20;99.90
68215;DHT22;55036;52.138;5.236;2023-02-17T07:45:31;11.20;99.90
68215;DHT22;55036;52.138;5.236;2023-02-17T07:47:58;11.20;99.90
68215;DHT22;55036;52.138;5.236;2023-02-17T07:50:25;11.20;99.90
68215;DHT22;55036;52.138;5.236;2023-02-17T07:52:52;11.20;99.90
68215;DHT22;55036;52.138;5.236;2023-02-17T07:55:18;11.30;99.90
68215;DHT22;55036;52.138;5.236;2023-02-17T07:57:45;11.40;99.70
68215;DHT22;55036;52.138;5.236;2023-02-17T08:00:12;11.40;99.50
68215;DHT22;55036;52.138;5.236;2023-02-17T08:02:39;11.40;99.60
68215;DHT22;55036;52.138;5.236;2023-02-17T08:05:06;11.40;99.60
68215;DHT22;55036;52.138;5.236;2023-02-17T08:07:32;11.50;99.30
68215;DHT22;55036;52.138;5.236;2023-02-17T08:09:59;11.50;99.10
68215;DHT22;55036;52.138;5.236;2023-02-17T08:12:44;11.50;99.30
68215;DHT22;55036;52.138;5.236;2023-02-17T08:15:32;11.50;99.00
68215;DHT22;55036;52.138;5.236;2023-02-17T08:18:00;11.50;99.10
68215;DHT22;55036;52.138;5.236;2023-02-17T08:20:27;11.50;99.10
68215;DHT22;55036;52.138;5.236;2023-02-17T08:22:54;11.60;98.80
68215;DHT22;55036;52.138;5.236;2023-02-17T08:25:20;11.50;98.50
68215;DHT22;55036;52.138;5.236;2023-02-17T08:27:47;11.50;99.00
68215;DHT22;55036;52.138;5.236;2023-02-17T08:30:14;11.60;98.50
68215;DHT22;55036;52.138;5.236;2023-02-17T08:32:40;11.50;98.20
68215;DHT22;55036;52.138;5.236;2023-02-17T08:35:07;11.60;98.30
68215;DHT22;55036;52.138;5.236;2023-02-17T08:37:34;11.50;98.20
68215;DHT22;55036;52.138;5.236;2023-02-17T08:40:01;11.50;98.60
68215;DHT22;55036;52.138;5.236;2023-02-17T08:42:28;11.50;98.60
68215;DHT22;55036;52.138;5.236;2023-02-17T08:44:57;11.60;98.20
68215;DHT22;55036;52.138;5.236;2023-02-17T08:47:23;11.60;98.20
68215;DHT22;55036;52.138;5.236;2023-02-17T08:49:50;11.50;97.90
68215;DHT22;55036;52.138;5.236;2023-02-17T08:52:17;11.60;97.70
68215;DHT22;55036;52.138;5.236;2023-02-17T08:54:44;11.60;98.00
68215;DHT22;55036;52.138;5.236;2023-02-17T08:57:11;11.50;98.20
68215;DHT22;55036;52.138;5.236;2023-02-17T08:59:37;11.60;97.90
68215;DHT22;55036;52.138;5.236;2023-02-17T09:02:04;11.60;98.10
68215;DHT22;55036;52.138;5.236;2023-02-17T09:04:31;11.60;97.90
68215;DHT22;55036;52.138;5.236;2023-02-17T09:06:58;11.60;97.90
68215;DHT22;55036;52.138;5.236;2023-02-17T09:09:25;11.70;97.50
68215;DHT22;55036;52.138;5.236;2023-02-17T09:11:54;11.70;97.20
68215;DHT22;55036;52.138;5.236;2023-02-17T09:14:21;11.70;97.90
68215;DHT22;55036;52.138;5.236;2023-02-17T09:16:52;11.80;97.30
68215;DHT22;55036;52.138;5.236;2023-02-17T09:19:19;11.80;97.30
68215;DHT22;55036;52.138;5.236;2023-02-17T09:21:46;11.70;97.30
68215;DHT22;55036;52.138;5.236;2023-02-17T09:24:14;11.70;97.30
68215;DHT22;55036;52.138;5.236;2023-02-17T09:26:41;11.80;97.20
68215;DHT22;55036;52.138;5.236;2023-02-17T09:29:08;11.80;97.10
68215;DHT22;55036;52.138;5.236;2023-02-17T09:31:36;11.80;96.80
68215;DHT22;55036;52.138;5.236;2023-02-17T09:34:03;11.80;96.90
68215;DHT22;55036;52.138;5.236;2023-02-17T09:36:33;11.90;97.00
68215;DHT22;55036;52.138;5.236;2023-02-17T09:39:00;11.90;96.60
68215;DHT22;55036;52.138;5.236;2023-02-17T09:41:36;11.90;96.30
68215;DHT22;55036;52.138;5.236;2023-02-17T09:44:06;11.90;96.50
68215;DHT22;55036;52.138;5.236;2023-02-17T09:46:43;11.90;96.30
68215;DHT22;55036;52.138;5.236;2023-02-17T09:49:32;12.00;96.40
68215;DHT22;55036;52.138;5.236;2023-02-17T09:52:19;11.90;96.10
68215;DHT22;55036;52.138;5.236;2023-02-17T09:57:24;12.00;96.40
68215;DHT22;55036;52.138;5.236;2023-02-17T10:02:40;12.00;96.10
68215;DHT22;55036;52.138;5.236;2023-02-17T10:05:14;12.00;95.70
68215;DHT22;55036;52.138;5.236;2023-02-17T10:07:52;12.00;95.70
68215;DHT22;55036;52.138;5.236;2023-02-17T10:10:31;12.00;96.10
68215;DHT22;55036;52.138;5.236;2023-02-17T10:13:01;12.00;96.00
68215;DHT22;55036;52.138;5.236;2023-02-17T10:15:35;12.00;96.00
68215;DHT22;55036;52.138;5.236;2023-02-17T10:18:18;12.00;96.00
68215;DHT22;55036;52.138;5.236;2023-02-17T10:20:50;12.10;95.90
68215;DHT22;55036;52.138;5.236;2023-02-17T10:23:24;12.10;95.60
68215;DHT22;55036;52.138;5.236;2023-02-17T10:31:45;12.10;96.40
68215;DHT22;55036;52.138;5.236;2023-02-17T10:39:51;12.10;96.10
68215;DHT22;55036;52.138;5.236;2023-02-17T10:44:54;12.20;95.40
68215;DHT22;55036;52.138;5.236;2023-02-17T10:47:24;12.30;95.30
68215;DHT22;55036;52.138;5.236;2023-02-17T10:49:52;12.30;95.30
68215;DHT22;55036;52.138;5.236;2023-02-17T10:52:23;12.20;95.40
68215;DHT22;55036;52.138;5.236;2023-02-17T10:54:57;12.30;95.20
68215;DHT22;55036;52.138;5.236;2023-02-17T10:57:29;12.20;95.30
68215;DHT22;55036;52.138;5.236;2023-02-17T10:59:58;12.20;95.60
68215;DHT22;55036;52.138;5.236;2023-02-17T11:02:39;12.30;95.20
68215;DHT22;55036;52.138;5.236;2023-02-17T11:05:29;12.20;95.20
68215;DHT22;55036;52.138;5.236;2023-02-17T11:08:05;12.30;95.20
68215;DHT22;55036;52.138;5.236;2023-02-17T11:10:35;12.30;95.40
68215;DHT22;55036;52.138;5.236;2023-02-17T11:13:05;12.30;95.00
68215;DHT22;55036;52.138;5.236;2023-02-17T11:15:46;12.30;94.90
68215;DHT22;55036;52.138;5.236;2023-02-17T11:18:21;12.40;95.00
68215;DHT22;55036;52.138;5.236;2023-02-17T11:20:59;12.40;94.80
68215;DHT22;55036;52.138;5.236;2023-02-17T11:23:26;12.40;94.90
68215;DHT22;55036;52.138;5.236;2023-02-17T11:26:37;12.40;94.80
68215;DHT22;55036;52.138;5.236;2023-02-17T11:28:44;12.30;94.90
68215;DHT22;55036;52.138;5.236;2023-02-17T11:31:28;12.30;95.10
68215;DHT22;55036;52.138;5.236;2023-02-17T11:33:56;12.40;95.10
68215;DHT22;55036;52.138;5.236;2023-02-17T11:36:26;12.40;94.40
68215;DHT22;55036;52.138;5.236;2023-02-17T11:38:53;12.40;94.50
68215;DHT22;55036;52.138;5.236;2023-02-17T11:41:20;12.30;94.60
68215;DHT22;55036;52.138;5.236;2023-02-17T11:43:57;12.40;94.30
68215;DHT22;55036;52.138;5.236;2023-02-17T11:46:45;12.30;94.40
68215;DHT22;55036;52.138;5.236;2023-02-17T11:54:57;12.20;94.70
68215;DHT22;55036;52.138;5.236;2023-02-17T11:57:37;12.20;94.60
68215;DHT22;55036;52.138;5.236;2023-02-17T12:00:20;12.30;94.60
68215;DHT22;55036;52.138;5.236;2023-02-17T12:03:30;12.30;94.50
68215;DHT22;55036;52.138;5.236;2023-02-17T12:06:12;12.30;94.30
68215;DHT22;55036;52.138;5.236;2023-02-17T12:11:54;12.20;94.00
68215;DHT22;55036;52.138;5.236;2023-02-17T12:17:15;12.00;94.90
68215;DHT22;55036;52.138;5.236;2023-02-17T12:20:01;12.00;94.90
68215;DHT22;55036;52.138;5.236;2023-02-17T12:30:32;12.10;94.60
68215;DHT22;55036;52.138;5.236;2023-02-17T12:35:41;12.10;94.60
68215;DHT22;55036;52.138;5.236;2023-02-17T12:38:14;12.20;94.10
68215;DHT22;55036;52.138;5.236;2023-02-17T12:41:09;12.20;93.70
68215;DHT22;55036;52.138;5.236;2023-02-17T12:43:48;12.20;94.00
68215;DHT22;55036;52.138;5.236;2023-02-17T12:46:22;12.20;94.00
68215;DHT22;55036;52.138;5.236;2023-02-17T12:51:32;12.20;94.20
68215;DHT22;55036;52.138;5.236;2023-02-17T12:54:24;12.20;94.30
68215;DHT22;55036;52.138;5.236;2023-02-17T13:04:27;12.30;94.70
68215;DHT22;55036;52.138;5.236;2023-02-17T13:13:03;12.40;93.60
68215;DHT22;55036;52.138;5.236;2023-02-17T13:15:36;12.60;93.30
68215;DHT22;55036;52.138;5.236;2023-02-17T13:18:14;12.70;92.80
68215;DHT22;55036;52.138;5.236;2023-02-17T13:20:56;12.60;92.90
68215;DHT22;55036;52.138;5.236;2023-02-17T13:23:27;12.60;92.80
68215;DHT22;55036;52.138;5.236;2023-02-17T13:28:50;12.60;92.20
68215;DHT22;55036;52.138;5.236;2023-02-17T13:31:22;12.60;92.80
68215;DHT22;55036;52.138;5.236;2023-02-17T13:41:26;12.60;92.20
68215;DHT22;55036;52.138;5.236;2023-02-17T13:43:53;12.50;92.40
68215;DHT22;55036;52.138;5.236;2023-02-17T13:46:23;12.60;92.40
68215;DHT22;55036;52.138;5.236;2023-02-17T13:49:00;12.60;92.20
68215;DHT22;55036;52.138;5.236;2023-02-17T13:51:28;12.50;92.30
68215;DHT22;55036;52.138;5.236;2023-02-17T13:53:55;12.60;92.20
68215;DHT22;55036;52.138;5.236;2023-02-17T13:58:50;12.70;92.00
68215;DHT22;55036;52.138;5.236;2023-02-17T14:01:18;12.70;91.70
68215;DHT22;55036;52.138;5.236;2023-02-17T14:03:49;12.70;91.90
68215;DHT22;55036;52.138;5.236;2023-02-17T14:06:39;12.70;92.10
68215;DHT22;55036;52.138;5.236;2023-02-17T14:12:01;12.60;92.70
68215;DHT22;55036;52.138;5.236;2023-02-17T14:14:35;12.70;92.10
68215;DHT22;55036;52.138;5.236;2023-02-17T14:17:07;12.70;91.90
68215;DHT22;55036;52.138;5.236;2023-02-17T14:19:44;12.80;92.00
68215;DHT22;55036;52.138;5.236;2023-02-17T14:22:32;12.90;91.60
68215;DHT22;55036;52.138;5.236;2023-02-17T14:25:25;13.00;91.10
68215;DHT22;55036;52.138;5.236;2023-02-17T14:27:52;13.00;91.20
68215;DHT22;55036;52.138;5.236;2023-02-17T14:30:30;13.00;90.90
68215;DHT22;55036;52.138;5.236;2023-02-17T14:33:05;13.00;91.00
68215;DHT22;55036;52.138;5.236;2023-02-17T14:35:34;13.00;91.00
68215;DHT22;55036;52.138;5.236;2023-02-17T14:38:09;13.00;91.10
68215;DHT22;55036;52.138;5.236;2023-02-17T14:40:43;12.90;91.40
68215;DHT22;55036;52.138;5.236;2023-02-17T14:43:10;12.90;91.60
68215;DHT22;55036;52.138;5.236;2023-02-17T14:45:37;13.00;91.20
68215;DHT22;55036;52.138;5.236;2023-02-17T14:48:04;13.00;91.20
68215;DHT22;55036;52.138;5.236;2023-02-17T14:50:32;13.00;91.30
68215;DHT22;55036;52.138;5.236;2023-02-17T14:52:59;13.10;90.80
68215;DHT22;55036;52.138;5.236;2023-02-17T14:55:30;13.00;91.00
68215;DHT22;55036;52.138;5.236;2023-02-17T14:57:59;13.00;91.20
68215;DHT22;55036;52.138;5.236;2023-02-17T15:00:26;12.90;91.40
68215;DHT22;55036;52.138;5.236;2023-02-17T15:02:53;13.00;91.30
68215;DHT22;55036;52.138;5.236;2023-02-17T15:05:20;13.00;91.10
68215;DHT22;55036;52.138;5.236;2023-02-17T15:07:46;13.00;91.10
68215;DHT22;55036;52.138;5.236;2023-02-17T15:10:27;12.90;91.40
68215;DHT22;55036;52.138;5.236;2023-02-17T15:12:55;12.90;91.40
68215;DHT22;55036;52.138;5.236;2023-02-17T15:15:22;12.90;91.30
68215;DHT22;55036;52.138;5.236;2023-02-17T15:17:49;12.90;91.20
68215;DHT22;55036;52.138;5.236;2023-02-17T15:20:16;12.90;91.60
68215;DHT22;55036;52.138;5.236;2023-02-17T15:22:43;12.90;91.50
68215;DHT22;55036;52.138;5.236;2023-02-17T15:25:14;12.90;91.30
68215;DHT22;55036;52.138;5.236;2023-02-17T15:27:42;12.90;91.40
68215;DHT22;55036;52.138;5.236;2023-02-17T15:30:14;12.80;91.40
68215;DHT22;55036;52.138;5.236;2023-02-17T15:32:42;12.70;91.70
68215;DHT22;55036;52.138;5.236;2023-02-17T15:37:42;12.80;91.70
68215;DHT22;55036;52.138;5.236;2023-02-17T15:40:24;12.80;91.40
68215;DHT22;55036;52.138;5.236;2023-02-17T15:42:57;12.80;91.30
68215;DHT22;55036;52.138;5.236;2023-02-17T15:45:26;12.70;91.70
68215;DHT22;55036;52.138;5.236;2023-02-17T15:48:17;12.80;91.70
68215;DHT22;55036;52.138;5.236;2023-02-17T15:50:47;12.80;91.40
68215;DHT22;55036;52.138;5.236;2023-02-17T15:53:13;12.70;92.20
68215;DHT22;55036;52.138;5.236;2023-02-17T15:55:40;12.70;91.70
68215;DHT22;55036;52.138;5.236;2023-02-17T15:58:13;12.80;91.60
68215;DHT22;55036;52.138;5.236;2023-02-17T16:00:42;12.70;91.70
68215;DHT22;55036;52.138;5.236;2023-02-17T16:03:14;12.80;91.60
68215;DHT22;55036;52.138;5.236;2023-02-17T16:05:41;12.80;91.30
68215;DHT22;55036;52.138;5.236;2023-02-17T16:08:08;12.80;91.60
68215;DHT22;55036;52.138;5.236;2023-02-17T16:10:35;12.80;91.20
68215;DHT22;55036;52.138;5.236;2023-02-17T16:13:02;12.70;91.40
68215;DHT22;55036;52.138;5.236;2023-02-17T16:15:30;12.70;91.60
68215;DHT22;55036;52.138;5.236;2023-02-17T16:17:57;12.70;91.40
68215;DHT22;55036;52.138;5.236;2023-02-17T16:20:30;12.70;91.60
68215;DHT22;55036;52.138;5.236;2023-02-17T16:23:01;12.60;91.50
68215;DHT22;55036;52.138;5.236;2023-02-17T16:25:28;12.50;91.90
68215;DHT22;55036;52.138;5.236;2023-02-17T16:27:55;12.50;92.10
68215;DHT22;55036;52.138;5.236;2023-02-17T16:30:30;12.50;92.00
68215;DHT22;55036;52.138;5.236;2023-02-17T16:32:58;12.50;91.80
68215;DHT22;55036;52.138;5.236;2023-02-17T16:35:26;12.50;91.80
68215;DHT22;55036;52.138;5.236;2023-02-17T16:37:56;12.50;91.90
68215;DHT22;55036;52.138;5.236;2023-02-17T16:40:27;12.50;91.70
68215;DHT22;55036;52.138;5.236;2023-02-17T16:42:54;12.50;91.60
68215;DHT22;55036;52.138;5.236;2023-02-17T16:45:23;12.40;91.80
68215;DHT22;55036;52.138;5.236;2023-02-17T16:48:01;12.30;92.20
68215;DHT22;55036;52.138;5.236;2023-02-17T16:50:31;12.30;92.20
68215;DHT22;55036;52.138;5.236;2023-02-17T16:53:01;12.40;92.00
68215;DHT22;55036;52.138;5.236;2023-02-17T16:55:30;12.30;92.30
68215;DHT22;55036;52.138;5.236;2023-02-17T16:57:58;12.30;92.40
68215;DHT22;55036;52.138;5.236;2023-02-17T17:00:27;12.20;92.60
68215;DHT22;55036;52.138;5.236;2023-02-17T17:02:56;12.10;92.70
68215;DHT22;55036;52.138;5.236;2023-02-17T17:05:24;12.10;92.80
68215;DHT22;55036;52.138;5.236;2023-02-17T17:07:51;12.10;92.70
68215;DHT22;55036;52.138;5.236;2023-02-17T17:10:24;12.10;92.70
68215;DHT22;55036;52.138;5.236;2023-02-17T17:12:51;12.10;92.90
68215;DHT22;55036;52.138;5.236;2023-02-17T17:15:17;12.10;92.90
68215;DHT22;55036;52.138;5.236;2023-02-17T17:17:58;12.10;92.70
68215;DHT22;55036;52.138;5.236;2023-02-17T17:20:37;12.10;92.70
68215;DHT22;55036;52.138;5.236;2023-02-17T17:23:12;12.10;92.60